ESNX

Arvidsjaur Airport

Arvidsjaur, Sweden
METAR ESNX 152150Z AUTO 13009KT 9999 OVC074/// 11/08 Q1011
Observed Flight Rules
Aug-15 @ 21:50 UTC (37 minutes ago) Visual Flight Rules
Wind Visibility Clouds
130° at 9 knots 10,000+ meters
  • Overcast at 7,400' AGL
Temperatures Readings
Current 11°C / 52°F
Dewpoint 8°C / 46°F
Humidity 82%
Altimeter 29.85" Hg
Pressure 1011 hPa
Elevation 379
METAR ESNX 152150Z AUTO 13009KT 9999 OVC074/// 11/08 Q1011
Observed Flight Rules
Aug-15 @ 21:50 UTC
(37 minutes ago)
VFR
Wind Visibility
130° at 9 knots 10,000+ meters
Clouds
  • Overcast at 7,400' AGL
Temperature Dewpoint
11°C / 52°F 8°C / 46°F
Humidity Altimeter Pressure
82% 29.85" Hg 1011 hPa